sensor_id;sensor_type;location;lat;lon;timestamp;P1;durP1;ratioP1;P2;durP2;ratioP2
25917;SDS011;13899;51.174;4.456;2022-07-26T00:00:49;8.43;;;2.28;;
25917;SDS011;13899;51.174;4.456;2022-07-26T00:03:14;5.82;;;2.50;;
25917;SDS011;13899;51.174;4.456;2022-07-26T00:05:40;7.85;;;2.50;;
25917;SDS011;13899;51.174;4.456;2022-07-26T00:08:06;7.38;;;2.50;;
25917;SDS011;13899;51.174;4.456;2022-07-26T00:10:35;8.63;;;2.78;;
25917;SDS011;13899;51.174;4.456;2022-07-26T00:13:02;8.75;;;2.05;;
25917;SDS011;13899;51.174;4.456;2022-07-26T00:15:28;9.52;;;2.28;;
25917;SDS011;13899;51.174;4.456;2022-07-26T00:17:54;9.50;;;2.83;;
25917;SDS011;13899;51.174;4.456;2022-07-26T00:20:19;6.87;;;2.83;;
25917;SDS011;13899;51.174;4.456;2022-07-26T00:22:45;8.00;;;2.22;;
25917;SDS011;13899;51.174;4.456;2022-07-26T00:25:11;8.80;;;2.43;;
25917;SDS011;13899;51.174;4.456;2022-07-26T00:27:36;6.97;;;2.72;;
25917;SDS011;13899;51.174;4.456;2022-07-26T00:30:05;8.90;;;3.03;;
25917;SDS011;13899;51.174;4.456;2022-07-26T00:32:33;9.57;;;2.70;;
25917;SDS011;13899;51.174;4.456;2022-07-26T00:35:00;7.25;;;2.67;;
25917;SDS011;13899;51.174;4.456;2022-07-26T00:37:25;7.15;;;2.35;;
25917;SDS011;13899;51.174;4.456;2022-07-26T00:39:51;8.50;;;2.65;;
25917;SDS011;13899;51.174;4.456;2022-07-26T00:42:16;8.07;;;2.25;;
25917;SDS011;13899;51.174;4.456;2022-07-26T00:44:43;7.22;;;2.42;;
25917;SDS011;13899;51.174;4.456;2022-07-26T00:47:09;10.40;;;2.70;;
25917;SDS011;13899;51.174;4.456;2022-07-26T00:49:35;8.05;;;2.58;;
25917;SDS011;13899;51.174;4.456;2022-07-26T00:52:02;10.98;;;2.85;;
25917;SDS011;13899;51.174;4.456;2022-07-26T00:54:29;7.70;;;2.83;;
25917;SDS011;13899;51.174;4.456;2022-07-26T00:56:55;11.02;;;2.83;;
25917;SDS011;13899;51.174;4.456;2022-07-26T00:59:21;11.07;;;3.13;;
25917;SDS011;13899;51.174;4.456;2022-07-26T01:01:46;9.68;;;2.70;;
25917;SDS011;13899;51.174;4.456;2022-07-26T01:04:12;10.00;;;2.60;;
25917;SDS011;13899;51.174;4.456;2022-07-26T01:06:38;8.77;;;2.45;;
25917;SDS011;13899;51.174;4.456;2022-07-26T01:09:04;9.90;;;3.13;;
25917;SDS011;13899;51.174;4.456;2022-07-26T01:11:30;9.37;;;3.40;;
25917;SDS011;13899;51.174;4.456;2022-07-26T01:13:56;10.98;;;3.17;;
25917;SDS011;13899;51.174;4.456;2022-07-26T01:16:22;8.68;;;3.30;;
25917;SDS011;13899;51.174;4.456;2022-07-26T01:18:48;10.70;;;3.17;;
25917;SDS011;13899;51.174;4.456;2022-07-26T01:21:13;11.18;;;3.22;;
25917;SDS011;13899;51.174;4.456;2022-07-26T01:23:39;8.57;;;3.03;;
25917;SDS011;13899;51.174;4.456;2022-07-26T01:26:06;6.75;;;3.55;;
25917;SDS011;13899;51.174;4.456;2022-07-26T01:28:38;10.40;;;3.15;;
25917;SDS011;13899;51.174;4.456;2022-07-26T01:31:05;11.25;;;3.63;;
25917;SDS011;13899;51.174;4.456;2022-07-26T01:33:32;10.68;;;3.50;;
25917;SDS011;13899;51.174;4.456;2022-07-26T01:35:58;9.48;;;3.95;;
25917;SDS011;13899;51.174;4.456;2022-07-26T01:38:24;9.30;;;2.95;;
25917;SDS011;13899;51.174;4.456;2022-07-26T01:40:50;9.10;;;3.53;;
25917;SDS011;13899;51.174;4.456;2022-07-26T01:43:16;19.73;;;5.28;;
25917;SDS011;13899;51.174;4.456;2022-07-26T01:45:41;9.63;;;3.47;;
25917;SDS011;13899;51.174;4.456;2022-07-26T01:48:07;10.02;;;3.85;;
25917;SDS011;13899;51.174;4.456;2022-07-26T01:50:34;7.30;;;3.55;;
25917;SDS011;13899;51.174;4.456;2022-07-26T01:53:00;10.70;;;3.90;;
25917;SDS011;13899;51.174;4.456;2022-07-26T01:55:25;10.50;;;3.95;;
25917;SDS011;13899;51.174;4.456;2022-07-26T01:57:51;11.30;;;3.38;;
25917;SDS011;13899;51.174;4.456;2022-07-26T02:00:17;10.00;;;3.47;;
25917;SDS011;13899;51.174;4.456;2022-07-26T02:02:43;8.67;;;3.83;;
25917;SDS011;13899;51.174;4.456;2022-07-26T02:05:09;14.60;;;4.38;;
25917;SDS011;13899;51.174;4.456;2022-07-26T02:07:39;13.70;;;3.60;;
25917;SDS011;13899;51.174;4.456;2022-07-26T02:10:07;12.02;;;3.45;;
25917;SDS011;13899;51.174;4.456;2022-07-26T02:12:34;13.20;;;3.28;;
25917;SDS011;13899;51.174;4.456;2022-07-26T02:14:59;12.18;;;2.67;;
25917;SDS011;13899;51.174;4.456;2022-07-26T02:17:25;13.50;;;2.67;;
25917;SDS011;13899;51.174;4.456;2022-07-26T02:19:51;15.43;;;4.07;;
25917;SDS011;13899;51.174;4.456;2022-07-26T02:22:17;8.90;;;2.63;;
25917;SDS011;13899;51.174;4.456;2022-07-26T02:24:46;7.88;;;2.85;;
25917;SDS011;13899;51.174;4.456;2022-07-26T02:27:12;9.50;;;3.58;;
25917;SDS011;13899;51.174;4.456;2022-07-26T02:29:39;12.30;;;3.40;;
25917;SDS011;13899;51.174;4.456;2022-07-26T02:32:04;10.55;;;2.97;;
25917;SDS011;13899;51.174;4.456;2022-07-26T02:34:30;10.35;;;3.28;;
25917;SDS011;13899;51.174;4.456;2022-07-26T02:36:56;12.98;;;3.05;;
25917;SDS011;13899;51.174;4.456;2022-07-26T02:39:21;8.90;;;3.03;;
25917;SDS011;13899;51.174;4.456;2022-07-26T02:41:52;12.10;;;3.65;;
25917;SDS011;13899;51.174;4.456;2022-07-26T02:44:22;11.50;;;3.25;;
25917;SDS011;13899;51.174;4.456;2022-07-26T02:46:49;11.45;;;3.47;;
25917;SDS011;13899;51.174;4.456;2022-07-26T02:49:15;10.25;;;3.22;;
25917;SDS011;13899;51.174;4.456;2022-07-26T02:51:41;10.40;;;3.47;;
25917;SDS011;13899;51.174;4.456;2022-07-26T02:54:07;12.35;;;3.35;;
25917;SDS011;13899;51.174;4.456;2022-07-26T02:56:32;12.80;;;3.67;;
25917;SDS011;13899;51.174;4.456;2022-07-26T02:58:58;13.68;;;4.32;;
25917;SDS011;13899;51.174;4.456;2022-07-26T03:01:23;13.07;;;4.00;;
25917;SDS011;13899;51.174;4.456;2022-07-26T03:03:49;16.90;;;3.73;;
25917;SDS011;13899;51.174;4.456;2022-07-26T03:06:15;14.63;;;4.60;;
25917;SDS011;13899;51.174;4.456;2022-07-26T03:08:40;16.20;;;4.40;;
25917;SDS011;13899;51.174;4.456;2022-07-26T03:11:06;13.90;;;4.07;;
25917;SDS011;13899;51.174;4.456;2022-07-26T03:13:32;19.33;;;4.60;;
25917;SDS011;13899;51.174;4.456;2022-07-26T03:15:58;15.77;;;3.92;;
25917;SDS011;13899;51.174;4.456;2022-07-26T03:18:24;13.23;;;4.22;;
25917;SDS011;13899;51.174;4.456;2022-07-26T03:20:50;13.25;;;4.47;;
25917;SDS011;13899;51.174;4.456;2022-07-26T03:23:16;12.02;;;4.50;;
25917;SDS011;13899;51.174;4.456;2022-07-26T03:25:41;12.47;;;4.00;;
25917;SDS011;13899;51.174;4.456;2022-07-26T03:28:07;12.10;;;3.90;;
25917;SDS011;13899;51.174;4.456;2022-07-26T03:30:33;16.70;;;4.23;;
25917;SDS011;13899;51.174;4.456;2022-07-26T03:32:59;11.63;;;4.47;;
25917;SDS011;13899;51.174;4.456;2022-07-26T03:35:24;14.45;;;3.92;;
25917;SDS011;13899;51.174;4.456;2022-07-26T03:37:50;11.13;;;4.03;;
25917;SDS011;13899;51.174;4.456;2022-07-26T03:40:16;13.27;;;4.23;;
25917;SDS011;13899;51.174;4.456;2022-07-26T03:42:43;16.63;;;5.18;;
25917;SDS011;13899;51.174;4.456;2022-07-26T03:45:09;9.38;;;3.92;;
25917;SDS011;13899;51.174;4.456;2022-07-26T03:47:35;14.65;;;4.15;;
25917;SDS011;13899;51.174;4.456;2022-07-26T03:50:01;12.07;;;4.00;;
25917;SDS011;13899;51.174;4.456;2022-07-26T03:52:27;11.10;;;3.90;;
25917;SDS011;13899;51.174;4.456;2022-07-26T03:54:53;17.75;;;4.93;;
25917;SDS011;13899;51.174;4.456;2022-07-26T03:57:19;13.82;;;4.65;;
25917;SDS011;13899;51.174;4.456;2022-07-26T03:59:44;16.57;;;4.03;;
25917;SDS011;13899;51.174;4.456;2022-07-26T04:02:10;15.32;;;4.53;;
25917;SDS011;13899;51.174;4.456;2022-07-26T04:04:35;14.87;;;4.67;;
25917;SDS011;13899;51.174;4.456;2022-07-26T04:07:01;15.05;;;4.32;;
25917;SDS011;13899;51.174;4.456;2022-07-26T04:09:27;11.30;;;4.57;;
25917;SDS011;13899;51.174;4.456;2022-07-26T04:11:52;13.53;;;4.17;;
25917;SDS011;13899;51.174;4.456;2022-07-26T04:14:18;26.73;;;5.27;;
25917;SDS011;13899;51.174;4.456;2022-07-26T04:16:45;11.52;;;4.72;;
25917;SDS011;13899;51.174;4.456;2022-07-26T04:19:10;17.42;;;5.03;;
25917;SDS011;13899;51.174;4.456;2022-07-26T04:21:36;10.17;;;4.63;;
25917;SDS011;13899;51.174;4.456;2022-07-26T04:24:02;19.63;;;4.68;;
25917;SDS011;13899;51.174;4.456;2022-07-26T04:26:27;11.57;;;4.88;;
25917;SDS011;13899;51.174;4.456;2022-07-26T04:28:53;12.87;;;3.90;;
25917;SDS011;13899;51.174;4.456;2022-07-26T04:31:20;11.15;;;4.45;;
25917;SDS011;13899;51.174;4.456;2022-07-26T04:33:45;12.00;;;4.38;;
25917;SDS011;13899;51.174;4.456;2022-07-26T04:36:11;9.50;;;4.05;;
25917;SDS011;13899;51.174;4.456;2022-07-26T04:38:37;10.73;;;4.87;;
25917;SDS011;13899;51.174;4.456;2022-07-26T04:41:02;16.38;;;4.80;;
25917;SDS011;13899;51.174;4.456;2022-07-26T04:43:28;12.60;;;3.88;;
25917;SDS011;13899;51.174;4.456;2022-07-26T04:45:54;13.63;;;4.68;;
25917;SDS011;13899;51.174;4.456;2022-07-26T04:48:21;11.82;;;4.40;;
25917;SDS011;13899;51.174;4.456;2022-07-26T04:50:47;12.97;;;4.47;;
25917;SDS011;13899;51.174;4.456;2022-07-26T04:53:13;13.30;;;4.28;;
25917;SDS011;13899;51.174;4.456;2022-07-26T04:55:39;14.13;;;4.07;;
25917;SDS011;13899;51.174;4.456;2022-07-26T04:58:05;9.38;;;4.35;;
25917;SDS011;13899;51.174;4.456;2022-07-26T05:00:31;11.05;;;4.00;;
25917;SDS011;13899;51.174;4.456;2022-07-26T05:02:57;9.77;;;4.00;;
25917;SDS011;13899;51.174;4.456;2022-07-26T05:05:24;13.30;;;4.05;;
25917;SDS011;13899;51.174;4.456;2022-07-26T05:07:52;12.57;;;3.90;;
25917;SDS011;13899;51.174;4.456;2022-07-26T05:10:19;12.55;;;3.83;;
25917;SDS011;13899;51.174;4.456;2022-07-26T05:12:46;10.45;;;4.13;;
25917;SDS011;13899;51.174;4.456;2022-07-26T05:15:13;13.48;;;4.10;;
25917;SDS011;13899;51.174;4.456;2022-07-26T05:17:40;10.77;;;4.43;;
25917;SDS011;13899;51.174;4.456;2022-07-26T05:20:07;11.82;;;3.75;;
25917;SDS011;13899;51.174;4.456;2022-07-26T05:22:34;8.20;;;3.75;;
25917;SDS011;13899;51.174;4.456;2022-07-26T05:25:01;9.90;;;4.63;;
25917;SDS011;13899;51.174;4.456;2022-07-26T05:27:28;9.55;;;3.75;;
25917;SDS011;13899;51.174;4.456;2022-07-26T05:29:54;9.97;;;3.93;;
25917;SDS011;13899;51.174;4.456;2022-07-26T05:32:24;13.70;;;4.03;;
25917;SDS011;13899;51.174;4.456;2022-07-26T05:34:49;15.68;;;4.13;;
25917;SDS011;13899;51.174;4.456;2022-07-26T05:37:15;11.83;;;4.40;;
25917;SDS011;13899;51.174;4.456;2022-07-26T05:39:41;13.33;;;4.20;;
25917;SDS011;13899;51.174;4.456;2022-07-26T05:42:06;12.67;;;4.40;;
25917;SDS011;13899;51.174;4.456;2022-07-26T05:44:32;8.10;;;3.53;;
25917;SDS011;13899;51.174;4.456;2022-07-26T05:46:57;11.18;;;4.82;;
25917;SDS011;13899;51.174;4.456;2022-07-26T05:49:23;9.47;;;4.77;;
25917;SDS011;13899;51.174;4.456;2022-07-26T05:51:50;10.85;;;4.68;;
25917;SDS011;13899;51.174;4.456;2022-07-26T05:54:16;11.55;;;4.65;;
25917;SDS011;13899;51.174;4.456;2022-07-26T05:56:42;17.90;;;5.00;;
25917;SDS011;13899;51.174;4.456;2022-07-26T05:59:08;12.00;;;4.70;;
25917;SDS011;13899;51.174;4.456;2022-07-26T06:01:34;13.18;;;5.65;;
25917;SDS011;13899;51.174;4.456;2022-07-26T06:03:59;10.77;;;4.27;;
25917;SDS011;13899;51.174;4.456;2022-07-26T06:06:25;8.20;;;4.15;;
25917;SDS011;13899;51.174;4.456;2022-07-26T06:08:51;10.97;;;4.17;;
25917;SDS011;13899;51.174;4.456;2022-07-26T06:11:17;10.27;;;4.93;;
25917;SDS011;13899;51.174;4.456;2022-07-26T06:13:42;12.70;;;5.27;;
25917;SDS011;13899;51.174;4.456;2022-07-26T06:16:08;10.55;;;4.35;;
25917;SDS011;13899;51.174;4.456;2022-07-26T06:18:34;11.83;;;4.90;;
25917;SDS011;13899;51.174;4.456;2022-07-26T06:20:59;9.90;;;4.00;;
25917;SDS011;13899;51.174;4.456;2022-07-26T06:23:25;8.37;;;3.70;;
25917;SDS011;13899;51.174;4.456;2022-07-26T06:25:51;9.47;;;3.90;;
25917;SDS011;13899;51.174;4.456;2022-07-26T06:28:16;7.60;;;3.93;;
25917;SDS011;13899;51.174;4.456;2022-07-26T06:30:42;5.83;;;3.30;;
25917;SDS011;13899;51.174;4.456;2022-07-26T06:33:08;10.88;;;3.45;;
25917;SDS011;13899;51.174;4.456;2022-07-26T06:35:34;4.43;;;2.60;;
25917;SDS011;13899;51.174;4.456;2022-07-26T06:38:02;6.85;;;3.03;;
25917;SDS011;13899;51.174;4.456;2022-07-26T06:40:29;9.55;;;2.60;;
25917;SDS011;13899;51.174;4.456;2022-07-26T06:42:55;9.43;;;2.80;;
25917;SDS011;13899;51.174;4.456;2022-07-26T06:45:21;5.07;;;1.60;;
25917;SDS011;13899;51.174;4.456;2022-07-26T06:47:46;6.43;;;2.27;;
25917;SDS011;13899;51.174;4.456;2022-07-26T06:50:12;7.40;;;2.20;;
25917;SDS011;13899;51.174;4.456;2022-07-26T06:52:38;6.20;;;2.50;;
25917;SDS011;13899;51.174;4.456;2022-07-26T06:55:04;6.35;;;2.08;;
25917;SDS011;13899;51.174;4.456;2022-07-26T06:57:30;4.22;;;1.80;;
25917;SDS011;13899;51.174;4.456;2022-07-26T06:59:56;5.87;;;2.20;;
25917;SDS011;13899;51.174;4.456;2022-07-26T07:02:21;6.47;;;2.63;;
25917;SDS011;13899;51.174;4.456;2022-07-26T07:04:47;5.70;;;1.70;;
25917;SDS011;13899;51.174;4.456;2022-07-26T07:07:13;3.47;;;1.60;;
25917;SDS011;13899;51.174;4.456;2022-07-26T07:09:38;5.90;;;2.10;;
25917;SDS011;13899;51.174;4.456;2022-07-26T07:12:04;8.07;;;1.87;;
25917;SDS011;13899;51.174;4.456;2022-07-26T07:14:31;6.82;;;2.42;;
25917;SDS011;13899;51.174;4.456;2022-07-26T07:16:57;6.63;;;1.90;;
25917;SDS011;13899;51.174;4.456;2022-07-26T07:19:23;5.87;;;2.50;;
25917;SDS011;13899;51.174;4.456;2022-07-26T07:21:49;8.35;;;1.80;;
25917;SDS011;13899;51.174;4.456;2022-07-26T07:24:15;5.88;;;1.70;;
25917;SDS011;13899;51.174;4.456;2022-07-26T07:26:41;6.05;;;1.70;;
25917;SDS011;13899;51.174;4.456;2022-07-26T07:29:07;4.80;;;2.00;;
25917;SDS011;13899;51.174;4.456;2022-07-26T07:31:41;5.43;;;2.08;;
25917;SDS011;13899;51.174;4.456;2022-07-26T07:34:07;6.38;;;1.63;;
25917;SDS011;13899;51.174;4.456;2022-07-26T07:36:33;7.63;;;2.07;;
25917;SDS011;13899;51.174;4.456;2022-07-26T07:38:58;5.53;;;2.90;;
25917;SDS011;13899;51.174;4.456;2022-07-26T07:41:24;4.37;;;1.63;;
25917;SDS011;13899;51.174;4.456;2022-07-26T07:43:50;6.17;;;1.93;;
25917;SDS011;13899;51.174;4.456;2022-07-26T07:46:15;4.70;;;1.50;;
25917;SDS011;13899;51.174;4.456;2022-07-26T07:48:41;3.07;;;1.50;;
25917;SDS011;13899;51.174;4.456;2022-07-26T07:51:07;4.47;;;1.70;;
25917;SDS011;13899;51.174;4.456;2022-07-26T07:53:32;8.37;;;1.47;;
25917;SDS011;13899;51.174;4.456;2022-07-26T07:55:58;8.40;;;2.20;;
25917;SDS011;13899;51.174;4.456;2022-07-26T07:58:24;4.85;;;1.50;;
25917;SDS011;13899;51.174;4.456;2022-07-26T08:00:50;6.30;;;1.93;;
25917;SDS011;13899;51.174;4.456;2022-07-26T08:03:16;4.57;;;1.67;;
25917;SDS011;13899;51.174;4.456;2022-07-26T08:05:42;3.47;;;1.40;;
25917;SDS011;13899;51.174;4.456;2022-07-26T08:08:07;5.70;;;1.80;;
25917;SDS011;13899;51.174;4.456;2022-07-26T08:10:33;11.00;;;2.03;;
25917;SDS011;13899;51.174;4.456;2022-07-26T08:12:59;4.43;;;1.87;;
25917;SDS011;13899;51.174;4.456;2022-07-26T08:15:25;3.37;;;1.17;;
25917;SDS011;13899;51.174;4.456;2022-07-26T08:17:51;4.35;;;1.20;;
25917;SDS011;13899;51.174;4.456;2022-07-26T08:20:17;3.22;;;1.20;;
25917;SDS011;13899;51.174;4.456;2022-07-26T08:22:43;4.18;;;1.60;;
25917;SDS011;13899;51.174;4.456;2022-07-26T08:25:09;4.93;;;1.53;;
25917;SDS011;13899;51.174;4.456;2022-07-26T08:27:34;4.50;;;1.67;;
25917;SDS011;13899;51.174;4.456;2022-07-26T08:30:00;5.90;;;1.70;;
25917;SDS011;13899;51.174;4.456;2022-07-26T08:32:26;5.18;;;1.20;;
25917;SDS011;13899;51.174;4.456;2022-07-26T08:34:52;5.80;;;1.60;;
25917;SDS011;13899;51.174;4.456;2022-07-26T08:37:18;5.43;;;1.30;;
25917;SDS011;13899;51.174;4.456;2022-07-26T08:39:44;5.60;;;1.80;;
25917;SDS011;13899;51.174;4.456;2022-07-26T08:42:11;3.65;;;1.58;;
25917;SDS011;13899;51.174;4.456;2022-07-26T08:44:45;4.85;;;1.40;;
25917;SDS011;13899;51.174;4.456;2022-07-26T08:47:12;5.47;;;1.60;;
25917;SDS011;13899;51.174;4.456;2022-07-26T08:49:38;6.00;;;1.65;;
25917;SDS011;13899;51.174;4.456;2022-07-26T08:52:04;3.78;;;1.30;;
25917;SDS011;13899;51.174;4.456;2022-07-26T08:54:30;3.15;;;1.38;;
25917;SDS011;13899;51.174;4.456;2022-07-26T08:56:56;3.55;;;1.50;;
25917;SDS011;13899;51.174;4.456;2022-07-26T08:59:23;5.78;;;1.20;;
25917;SDS011;13899;51.174;4.456;2022-07-26T09:01:52;2.60;;;1.57;;
25917;SDS011;13899;51.174;4.456;2022-07-26T09:04:24;3.90;;;1.60;;
25917;SDS011;13899;51.174;4.456;2022-07-26T09:07:02;5.05;;;1.42;;
25917;SDS011;13899;51.174;4.456;2022-07-26T09:09:34;4.05;;;1.40;;
25917;SDS011;13899;51.174;4.456;2022-07-26T09:12:12;2.72;;;1.40;;
25917;SDS011;13899;51.174;4.456;2022-07-26T09:14:40;5.07;;;1.30;;
25917;SDS011;13899;51.174;4.456;2022-07-26T09:17:05;4.70;;;1.87;;
25917;SDS011;13899;51.174;4.456;2022-07-26T09:19:32;6.32;;;1.42;;
25917;SDS011;13899;51.174;4.456;2022-07-26T09:22:04;2.97;;;1.20;;
25917;SDS011;13899;51.174;4.456;2022-07-26T09:24:38;3.00;;;1.30;;
25917;SDS011;13899;51.174;4.456;2022-07-26T09:27:06;3.47;;;1.50;;
25917;SDS011;13899;51.174;4.456;2022-07-26T09:32:21;4.45;;;1.52;;
25917;SDS011;13899;51.174;4.456;2022-07-26T09:34:52;6.00;;;1.30;;
25917;SDS011;13899;51.174;4.456;2022-07-26T09:37:39;5.18;;;1.50;;
25917;SDS011;13899;51.174;4.456;2022-07-26T09:40:09;3.78;;;1.70;;
25917;SDS011;13899;51.174;4.456;2022-07-26T09:42:36;5.88;;;1.40;;
25917;SDS011;13899;51.174;4.456;2022-07-26T09:45:02;3.83;;;1.60;;
25917;SDS011;13899;51.174;4.456;2022-07-26T09:47:39;3.55;;;1.52;;
25917;SDS011;13899;51.174;4.456;2022-07-26T09:50:12;5.90;;;1.67;;
25917;SDS011;13899;51.174;4.456;2022-07-26T09:55:32;4.95;;;1.70;;
25917;SDS011;13899;51.174;4.456;2022-07-26T09:57:59;4.57;;;1.75;;
25917;SDS011;13899;51.174;4.456;2022-07-26T10:00:28;4.75;;;2.15;;
25917;SDS011;13899;51.174;4.456;2022-07-26T10:02:57;3.60;;;1.83;;
25917;SDS011;13899;51.174;4.456;2022-07-26T10:05:24;4.40;;;2.50;;
25917;SDS011;13899;51.174;4.456;2022-07-26T10:07:50;6.17;;;2.43;;
25917;SDS011;13899;51.174;4.456;2022-07-26T10:10:33;4.93;;;2.70;;
25917;SDS011;13899;51.174;4.456;2022-07-26T10:13:04;2.65;;;1.80;;
25917;SDS011;13899;51.174;4.456;2022-07-26T10:15:33;2.97;;;2.30;;
25917;SDS011;13899;51.174;4.456;2022-07-26T10:18:10;4.38;;;2.63;;
25917;SDS011;13899;51.174;4.456;2022-07-26T10:20:55;2.58;;;1.75;;
25917;SDS011;13899;51.174;4.456;2022-07-26T10:23:40;3.47;;;1.97;;
25917;SDS011;13899;51.174;4.456;2022-07-26T10:26:08;2.50;;;1.27;;
25917;SDS011;13899;51.174;4.456;2022-07-26T10:28:36;3.78;;;1.40;;
25917;SDS011;13899;51.174;4.456;2022-07-26T10:33:44;3.53;;;1.92;;
25917;SDS011;13899;51.174;4.456;2022-07-26T10:39:07;4.32;;;2.30;;
25917;SDS011;13899;51.174;4.456;2022-07-26T10:44:22;4.88;;;1.90;;
25917;SDS011;13899;51.174;4.456;2022-07-26T10:49:34;1.45;;;1.35;;
25917;SDS011;13899;51.174;4.456;2022-07-26T10:52:04;2.15;;;1.00;;
25917;SDS011;13899;51.174;4.456;2022-07-26T10:54:31;1.45;;;1.00;;
25917;SDS011;13899;51.174;4.456;2022-07-26T10:56:56;1.97;;;1.03;;
25917;SDS011;13899;51.174;4.456;2022-07-26T10:59:31;2.00;;;1.03;;
25917;SDS011;13899;51.174;4.456;2022-07-26T11:01:57;1.58;;;0.90;;
25917;SDS011;13899;51.174;4.456;2022-07-26T11:04:23;1.43;;;0.80;;
25917;SDS011;13899;51.174;4.456;2022-07-26T11:06:49;1.75;;;0.90;;
25917;SDS011;13899;51.174;4.456;2022-07-26T11:09:17;1.90;;;0.90;;
25917;SDS011;13899;51.174;4.456;2022-07-26T11:11:44;1.85;;;1.38;;
25917;SDS011;13899;51.174;4.456;2022-07-26T11:14:11;2.27;;;1.30;;
25917;SDS011;13899;51.174;4.456;2022-07-26T11:16:43;3.05;;;1.60;;
25917;SDS011;13899;51.174;4.456;2022-07-26T11:21:43;3.78;;;1.50;;
25917;SDS011;13899;51.174;4.456;2022-07-26T11:24:10;4.03;;;2.92;;
25917;SDS011;13899;51.174;4.456;2022-07-26T11:26:42;2.90;;;2.60;;
25917;SDS011;13899;51.174;4.456;2022-07-26T11:29:09;4.05;;;3.15;;
25917;SDS011;13899;51.174;4.456;2022-07-26T11:31:40;4.95;;;3.97;;
25917;SDS011;13899;51.174;4.456;2022-07-26T11:34:15;4.35;;;3.80;;
25917;SDS011;13899;51.174;4.456;2022-07-26T11:36:43;6.15;;;3.30;;
25917;SDS011;13899;51.174;4.456;2022-07-26T11:39:11;4.60;;;3.33;;
25917;SDS011;13899;51.174;4.456;2022-07-26T11:41:38;3.97;;;2.58;;
25917;SDS011;13899;51.174;4.456;2022-07-26T11:44:06;4.20;;;2.85;;
25917;SDS011;13899;51.174;4.456;2022-07-26T11:46:54;3.75;;;2.97;;
25917;SDS011;13899;51.174;4.456;2022-07-26T11:51:48;5.17;;;3.07;;
25917;SDS011;13899;51.174;4.456;2022-07-26T11:54:13;5.07;;;3.45;;
25917;SDS011;13899;51.174;4.456;2022-07-26T11:56:39;3.75;;;3.42;;
25917;SDS011;13899;51.174;4.456;2022-07-26T11:59:14;3.15;;;2.65;;
25917;SDS011;13899;51.174;4.456;2022-07-26T12:01:41;3.72;;;2.83;;
25917;SDS011;13899;51.174;4.456;2022-07-26T12:04:16;3.47;;;2.20;;
25917;SDS011;13899;51.174;4.456;2022-07-26T12:06:44;2.15;;;1.95;;
25917;SDS011;13899;51.174;4.456;2022-07-26T12:09:09;4.13;;;2.20;;
25917;SDS011;13899;51.174;4.456;2022-07-26T12:11:36;5.05;;;2.58;;
25917;SDS011;13899;51.174;4.456;2022-07-26T12:14:05;3.10;;;2.00;;
25917;SDS011;13899;51.174;4.456;2022-07-26T12:19:00;2.10;;;1.63;;
25917;SDS011;13899;51.174;4.456;2022-07-26T12:21:41;3.10;;;2.20;;
25917;SDS011;13899;51.174;4.456;2022-07-26T12:29:38;4.15;;;3.28;;
25917;SDS011;13899;51.174;4.456;2022-07-26T12:32:05;4.75;;;2.70;;
25917;SDS011;13899;51.174;4.456;2022-07-26T12:37:32;7.35;;;3.45;;
25917;SDS011;13899;51.174;4.456;2022-07-26T12:42:28;6.05;;;2.80;;
25917;SDS011;13899;51.174;4.456;2022-07-26T12:44:57;4.85;;;2.67;;
25917;SDS011;13899;51.174;4.456;2022-07-26T12:47:24;3.30;;;2.30;;
25917;SDS011;13899;51.174;4.456;2022-07-26T12:49:50;4.68;;;2.83;;
25917;SDS011;13899;51.174;4.456;2022-07-26T12:52:16;3.88;;;2.58;;
25917;SDS011;13899;51.174;4.456;2022-07-26T12:54:44;5.97;;;2.90;;
25917;SDS011;13899;51.174;4.456;2022-07-26T12:57:11;3.30;;;2.97;;
25917;SDS011;13899;51.174;4.456;2022-07-26T12:59:37;4.47;;;3.42;;
25917;SDS011;13899;51.174;4.456;2022-07-26T13:02:03;5.95;;;3.28;;
25917;SDS011;13899;51.174;4.456;2022-07-26T13:04:29;5.77;;;3.53;;
25917;SDS011;13899;51.174;4.456;2022-07-26T13:06:55;3.53;;;3.20;;
25917;SDS011;13899;51.174;4.456;2022-07-26T13:09:21;5.77;;;3.10;;
25917;SDS011;13899;51.174;4.456;2022-07-26T13:11:46;3.70;;;3.23;;
25917;SDS011;13899;51.174;4.456;2022-07-26T13:14:12;3.43;;;2.97;;
25917;SDS011;13899;51.174;4.456;2022-07-26T13:16:38;4.23;;;3.63;;
25917;SDS011;13899;51.174;4.456;2022-07-26T13:19:03;6.37;;;3.47;;
25917;SDS011;13899;51.174;4.456;2022-07-26T13:21:29;6.03;;;3.03;;
25917;SDS011;13899;51.174;4.456;2022-07-26T13:23:56;4.72;;;3.65;;
25917;SDS011;13899;51.174;4.456;2022-07-26T13:26:21;6.43;;;5.35;;
25917;SDS011;13899;51.174;4.456;2022-07-26T13:28:48;8.13;;;4.82;;
25917;SDS011;13899;51.174;4.456;2022-07-26T13:31:13;5.47;;;4.97;;
25917;SDS011;13899;51.174;4.456;2022-07-26T13:33:40;8.80;;;6.60;;
25917;SDS011;13899;51.174;4.456;2022-07-26T13:36:06;6.05;;;5.05;;
25917;SDS011;13899;51.174;4.456;2022-07-26T13:38:31;6.90;;;5.73;;
25917;SDS011;13899;51.174;4.456;2022-07-26T13:41:00;6.40;;;5.80;;
25917;SDS011;13899;51.174;4.456;2022-07-26T13:43:27;7.88;;;6.43;;
25917;SDS011;13899;51.174;4.456;2022-07-26T13:45:55;5.90;;;5.40;;
25917;SDS011;13899;51.174;4.456;2022-07-26T13:48:21;4.82;;;4.43;;
25917;SDS011;13899;51.174;4.456;2022-07-26T13:50:46;3.87;;;3.50;;
25917;SDS011;13899;51.174;4.456;2022-07-26T13:53:13;4.07;;;2.95;;
25917;SDS011;13899;51.174;4.456;2022-07-26T13:55:38;5.37;;;4.07;;
25917;SDS011;13899;51.174;4.456;2022-07-26T13:58:04;4.90;;;4.40;;
25917;SDS011;13899;51.174;4.456;2022-07-26T14:00:29;7.53;;;4.07;;
25917;SDS011;13899;51.174;4.456;2022-07-26T14:02:55;4.80;;;4.40;;
25917;SDS011;13899;51.174;4.456;2022-07-26T14:05:22;3.90;;;3.60;;
25917;SDS011;13899;51.174;4.456;2022-07-26T14:07:49;5.70;;;2.58;;
25917;SDS011;13899;51.174;4.456;2022-07-26T14:10:15;4.22;;;3.53;;
25917;SDS011;13899;51.174;4.456;2022-07-26T14:12:40;4.40;;;3.03;;
25917;SDS011;13899;51.174;4.456;2022-07-26T14:15:06;6.00;;;3.35;;
25917;SDS011;13899;51.174;4.456;2022-07-26T14:19:59;7.13;;;3.28;;
25917;SDS011;13899;51.174;4.456;2022-07-26T14:22:25;5.07;;;3.23;;
25917;SDS011;13899;51.174;4.456;2022-07-26T14:24:50;3.97;;;2.67;;
25917;SDS011;13899;51.174;4.456;2022-07-26T14:27:16;3.60;;;2.70;;
25917;SDS011;13899;51.174;4.456;2022-07-26T14:29:42;4.40;;;3.13;;
25917;SDS011;13899;51.174;4.456;2022-07-26T14:32:10;5.53;;;3.83;;
25917;SDS011;13899;51.174;4.456;2022-07-26T14:34:36;6.75;;;3.85;;
25917;SDS011;13899;51.174;4.456;2022-07-26T14:37:01;4.93;;;2.87;;
25917;SDS011;13899;51.174;4.456;2022-07-26T14:39:27;4.83;;;2.47;;
25917;SDS011;13899;51.174;4.456;2022-07-26T14:41:53;2.87;;;1.90;;
25917;SDS011;13899;51.174;4.456;2022-07-26T14:44:20;6.15;;;2.38;;
25917;SDS011;13899;51.174;4.456;2022-07-26T14:46:45;4.63;;;2.20;;
25917;SDS011;13899;51.174;4.456;2022-07-26T14:49:11;3.47;;;2.17;;
25917;SDS011;13899;51.174;4.456;2022-07-26T14:54:04;3.17;;;2.07;;
25917;SDS011;13899;51.174;4.456;2022-07-26T14:56:30;5.35;;;3.03;;
25917;SDS011;13899;51.174;4.456;2022-07-26T14:58:55;3.65;;;2.67;;
25917;SDS011;13899;51.174;4.456;2022-07-26T15:01:21;6.13;;;2.47;;
25917;SDS011;13899;51.174;4.456;2022-07-26T15:03:47;5.27;;;2.63;;
25917;SDS011;13899;51.174;4.456;2022-07-26T15:08:39;6.93;;;2.80;;
25917;SDS011;13899;51.174;4.456;2022-07-26T15:11:05;3.87;;;2.23;;
25917;SDS011;13899;51.174;4.456;2022-07-26T15:13:31;7.07;;;3.77;;
25917;SDS011;13899;51.174;4.456;2022-07-26T15:15:56;7.60;;;3.33;;
25917;SDS011;13899;51.174;4.456;2022-07-26T15:18:22;6.43;;;2.50;;
25917;SDS011;13899;51.174;4.456;2022-07-26T15:20:48;3.67;;;2.47;;
25917;SDS011;13899;51.174;4.456;2022-07-26T15:23:13;4.77;;;2.50;;